Time;durP1;ratioP1;P1;durP2;ratioP2;P2;SDS_P1;SDS_P2;PMS_P1;PMS_P2;Temp;Humidity;BMP_temperature;BMP_pressure;BME280_temperature;BME280_humidity;BME280_pressure;Samples;Min_cycle;Max_cycle;Signal;HPM_P1;HPM_P2
2023/10/16 00:00:32;;;;;;;7.25;2.75;;;;;;;;;;5092264;28;20075;-59
2023/10/16 00:03:02;;;;;;;4.80;2.88;;;;;;;;;;5095842;28;20378;-60
2023/10/16 00:05:32;;;;;;;5.60;2.45;;;;;;;;;;5096543;28;20068;-60
2023/10/16 00:08:05;;;;;;;4.57;2.40;;;;;;;;;;5096518;28;20070;-60
2023/10/16 00:10:36;;;;;;;5.90;2.92;;;;;;;;;;5096476;28;20051;-61
2023/10/16 00:13:05;;;;;;;5.43;2.40;;;;;;;;;;5096465;28;20063;-60
2023/10/16 00:15:35;;;;;;;5.78;2.65;;;;;;;;;;5096301;28;20059;-60
2023/10/16 00:18:09;;;;;;;5.25;2.70;;;;;;;;;;5096226;28;20047;-60
2023/10/16 00:20:37;;;;;;;4.68;2.55;;;;;;;;;;5095686;28;20067;-61
2023/10/16 00:23:06;;;;;;;5.55;2.95;;;;;;;;;;5096154;28;20059;-61
2023/10/16 00:25:33;;;;;;;3.88;2.75;;;;;;;;;;5095960;28;20063;-60
2023/10/16 00:28:01;;;;;;;4.35;2.28;;;;;;;;;;5095824;28;20048;-61
2023/10/16 00:30:31;;;;;;;5.75;3.22;;;;;;;;;;5095838;28;20059;-60
2023/10/16 00:32:58;;;;;;;5.97;2.72;;;;;;;;;;5095950;28;20048;-60
2023/10/16 00:35:26;;;;;;;5.35;2.55;;;;;;;;;;5095695;28;20063;-60
2023/10/16 00:37:55;;;;;;;5.05;2.33;;;;;;;;;;5096106;28;20374;-59
2023/10/16 00:40:31;;;;;;;4.00;2.65;;;;;;;;;;5095240;28;20508;-61
2023/10/16 00:42:59;;;;;;;5.82;2.72;;;;;;;;;;5095804;28;20466;-61
2023/10/16 00:45:26;;;;;;;4.22;2.15;;;;;;;;;;5095813;28;20059;-61
2023/10/16 00:47:53;;;;;;;9.68;2.92;;;;;;;;;;5116366;28;20056;-61
2023/10/16 00:50:20;;;;;;;5.45;2.33;;;;;;;;;;5116001;28;20059;-61
2023/10/16 00:52:52;;;;;;;7.95;2.63;;;;;;;;;;5107695;28;20047;-60
2023/10/16 00:55:20;;;;;;;6.60;2.75;;;;;;;;;;5116003;28;20052;-63
2023/10/16 00:57:48;;;;;;;6.50;2.40;;;;;;;;;;5115618;28;20048;-61
2023/10/16 01:00:15;;;;;;;4.18;2.60;;;;;;;;;;5115493;28;20051;-60
2023/10/16 01:02:42;;;;;;;5.38;2.30;;;;;;;;;;5115993;28;20051;-61
2023/10/16 01:05:09;;;;;;;4.43;2.22;;;;;;;;;;5113230;28;20058;-61
2023/10/16 01:07:36;;;;;;;4.63;2.25;;;;;;;;;;5112732;28;20052;-60
2023/10/16 01:10:10;;;;;;;5.47;2.50;;;;;;;;;;5115523;28;20499;-60
2023/10/16 01:12:37;;;;;;;7.57;2.75;;;;;;;;;;5115434;28;20047;-59
2023/10/16 01:15:07;;;;;;;8.00;3.53;;;;;;;;;;5115371;28;20052;-60
2023/10/16 01:17:35;;;;;;;4.65;2.58;;;;;;;;;;5115515;28;20047;-60
2023/10/16 01:20:02;;;;;;;4.78;2.63;;;;;;;;;;5115362;28;20043;-60
2023/10/16 01:22:34;;;;;;;4.00;2.33;;;;;;;;;;5115456;28;20048;-60
2023/10/16 01:25:07;;;;;;;7.43;2.75;;;;;;;;;;5115436;28;20052;-61
2023/10/16 01:27:37;;;;;;;4.38;2.60;;;;;;;;;;5115595;28;20052;-61
2023/10/16 01:30:06;;;;;;;4.68;2.40;;;;;;;;;;5115112;28;20051;-60
2023/10/16 01:32:33;;;;;;;5.05;2.40;;;;;;;;;;5115324;28;20048;-61
2023/10/16 01:35:00;;;;;;;4.40;2.83;;;;;;;;;;5115181;28;20051;-60
2023/10/16 01:37:27;;;;;;;5.72;2.70;;;;;;;;;;5114764;28;20058;-60
2023/10/16 01:39:54;;;;;;;5.05;3.03;;;;;;;;;;5115165;28;20069;-60
2023/10/16 01:42:23;;;;;;;4.55;2.58;;;;;;;;;;5115154;28;20396;-60
2023/10/16 01:44:51;;;;;;;3.87;2.40;;;;;;;;;;5115069;28;20400;-60
2023/10/16 01:47:18;;;;;;;6.43;2.60;;;;;;;;;;5114664;28;20496;-60
2023/10/16 01:49:47;;;;;;;5.22;2.70;;;;;;;;;;5114892;28;20051;-60
2023/10/16 01:52:14;;;;;;;4.93;2.60;;;;;;;;;;5114742;28;20066;-60
2023/10/16 01:54:44;;;;;;;5.85;2.80;;;;;;;;;;5114759;28;20477;-60
2023/10/16 01:57:12;;;;;;;3.45;2.00;;;;;;;;;;5114623;28;20047;-60
2023/10/16 01:59:41;;;;;;;6.05;2.97;;;;;;;;;;5114407;28;20048;-60
2023/10/16 02:02:09;;;;;;;4.82;2.53;;;;;;;;;;5114577;28;20052;-60
2023/10/16 02:04:37;;;;;;;5.45;2.63;;;;;;;;;;5114662;28;20415;-60
2023/10/16 02:07:04;;;;;;;4.15;2.50;;;;;;;;;;5114507;28;20048;-61
2023/10/16 02:09:33;;;;;;;5.05;2.78;;;;;;;;;;5114168;28;20047;-60
2023/10/16 02:12:00;;;;;;;5.28;2.70;;;;;;;;;;5114286;28;20052;-60
2023/10/16 02:14:27;;;;;;;4.75;2.60;;;;;;;;;;5114423;28;20058;-60
2023/10/16 02:16:57;;;;;;;5.65;2.40;;;;;;;;;;5114017;28;20054;-60
2023/10/16 02:19:25;;;;;;;5.68;2.40;;;;;;;;;;5114239;28;20058;-60
2023/10/16 02:21:53;;;;;;;5.82;2.83;;;;;;;;;;5114311;28;20480;-60
2023/10/16 02:24:20;;;;;;;4.47;2.83;;;;;;;;;;5113495;28;20047;-60
2023/10/16 02:26:56;;;;;;;5.95;2.97;;;;;;;;;;5113921;28;20062;-61
2023/10/16 02:29:23;;;;;;;5.05;2.58;;;;;;;;;;5114230;28;20044;-61
2023/10/16 02:31:51;;;;;;;5.80;2.63;;;;;;;;;;5113672;28;20059;-60
2023/10/16 02:34:23;;;;;;;5.78;3.13;;;;;;;;;;5113774;28;20058;-60
2023/10/16 02:36:51;;;;;;;6.05;2.60;;;;;;;;;;5114170;28;20488;-60
2023/10/16 02:39:35;;;;;;;9.38;2.88;;;;;;;;;;5113673;28;20052;-60
2023/10/16 02:42:03;;;;;;;5.53;2.50;;;;;;;;;;5113997;28;20124;-60
2023/10/16 02:44:30;;;;;;;5.85;2.38;;;;;;;;;;5113552;28;20058;-60
2023/10/16 02:46:58;;;;;;;7.57;3.40;;;;;;;;;;5113632;28;20233;-60
2023/10/16 02:49:26;;;;;;;7.18;3.33;;;;;;;;;;5113812;28;20051;-60
2023/10/16 02:51:53;;;;;;;8.00;3.10;;;;;;;;;;5113769;28;20476;-60
2023/10/16 02:54:20;;;;;;;6.28;3.03;;;;;;;;;;5113744;28;20404;-61
2023/10/16 02:56:47;;;;;;;4.53;2.38;;;;;;;;;;5113638;28;20052;-61
2023/10/16 02:59:13;;;;;;;4.15;2.35;;;;;;;;;;5113171;28;20441;-60
2023/10/16 03:01:40;;;;;;;4.03;2.20;;;;;;;;;;5113556;28;20058;-60
2023/10/16 03:04:08;;;;;;;5.40;3.10;;;;;;;;;;5113468;28;20051;-60
2023/10/16 03:06:40;;;;;;;4.72;2.55;;;;;;;;;;5113407;28;20056;-60
2023/10/16 03:09:25;;;;;;;5.10;2.65;;;;;;;;;;5113453;28;20051;-60
2023/10/16 03:11:57;;;;;;;5.57;2.70;;;;;;;;;;5112992;28;20052;-60
2023/10/16 03:14:35;;;;;;;4.47;2.55;;;;;;;;;;5113423;28;20460;-59
2023/10/16 03:17:08;;;;;;;5.53;2.78;;;;;;;;;;5113235;28;20047;-60
2023/10/16 03:19:35;;;;;;;6.60;3.30;;;;;;;;;;5113242;28;20047;-61
2023/10/16 03:22:11;;;;;;;6.13;2.88;;;;;;;;;;5113008;28;20396;-62
2023/10/16 03:24:38;;;;;;;6.85;2.72;;;;;;;;;;5112938;28;20496;-60
2023/10/16 03:27:08;;;;;;;6.38;3.15;;;;;;;;;;5113065;28;20055;-60
2023/10/16 03:29:35;;;;;;;4.95;2.83;;;;;;;;;;5113119;28;20051;-60
2023/10/16 03:32:03;;;;;;;5.32;2.90;;;;;;;;;;5113156;28;20047;-61
2023/10/16 03:34:31;;;;;;;4.68;2.67;;;;;;;;;;5112778;28;20071;-60
2023/10/16 03:37:03;;;;;;;4.10;2.90;;;;;;;;;;5113043;28;20078;-61
2023/10/16 03:39:32;;;;;;;6.35;2.97;;;;;;;;;;5112694;28;20078;-60
2023/10/16 03:41:59;;;;;;;5.45;2.78;;;;;;;;;;5112965;28;20048;-60
2023/10/16 03:44:27;;;;;;;5.20;3.00;;;;;;;;;;5112697;28;20055;-60
2023/10/16 03:46:55;;;;;;;4.28;2.95;;;;;;;;;;5112490;28;20492;-60
2023/10/16 03:49:22;;;;;;;5.22;3.25;;;;;;;;;;5112656;28;20055;-60
2023/10/16 03:51:50;;;;;;;6.22;3.60;;;;;;;;;;5112681;28;20055;-61
2023/10/16 03:54:30;;;;;;;5.38;2.40;;;;;;;;;;5112855;28;20063;-60
2023/10/16 03:57:00;;;;;;;4.53;2.80;;;;;;;;;;5112829;28;20055;-60
2023/10/16 03:59:28;;;;;;;;;;;;;;;;;;5113037;28;20051;-60
2023/10/16 04:01:55;;;;;;;5.30;2.63;;;;;;;;;;5112833;28;19920;-60
2023/10/16 04:04:24;;;;;;;6.68;3.20;;;;;;;;;;5112467;28;20420;-60
2023/10/16 04:06:52;;;;;;;5.88;3.50;;;;;;;;;;5112519;28;20051;-61
2023/10/16 04:09:19;;;;;;;5.97;2.88;;;;;;;;;;5112836;28;20052;-60
2023/10/16 04:11:54;;;;;;;5.03;3.03;;;;;;;;;;5112699;28;20055;-60
2023/10/16 04:14:44;;;;;;;5.38;3.10;;;;;;;;;;5112674;28;20052;-60
2023/10/16 04:17:11;;;;;;;5.22;2.63;;;;;;;;;;5112479;28;20130;-60
2023/10/16 04:19:52;;;;;;;4.68;3.08;;;;;;;;;;5112471;28;20062;-60
2023/10/16 04:22:20;;;;;;;5.65;2.83;;;;;;;;;;5112473;28;20052;-60
2023/10/16 04:24:54;;;;;;;6.55;2.83;;;;;;;;;;5112339;28;20048;-60
2023/10/16 04:27:32;;;;;;;5.70;2.40;;;;;;;;;;5112405;28;20052;-59
2023/10/16 04:33:02;;;;;;;5.00;2.90;;;;;;;;;;5114736;28;20357;-58
2023/10/16 04:35:32;;;;;;;4.68;3.10;;;;;;;;;;5112159;28;20137;-59
2023/10/16 04:38:27;;;;;;;4.75;3.15;;;;;;;;;;5111871;28;20051;-60
2023/10/16 04:43:48;;;;;;;4.97;3.00;;;;;;;;;;5104533;28;20047;-62
2023/10/16 04:46:20;;;;;;;6.10;2.60;;;;;;;;;;5111895;28;20480;-59
2023/10/16 04:48:50;;;;;;;4.57;2.40;;;;;;;;;;5114730;28;20557;-60
2023/10/16 04:51:22;;;;;;;3.97;1.88;;;;;;;;;;5113943;28;20051;-60
2023/10/16 04:53:58;;;;;;;5.90;2.58;;;;;;;;;;5110374;28;20059;-60
2023/10/16 04:59:36;;;;;;;4.75;2.38;;;;;;;;;;5121993;28;20047;-60
2023/10/16 05:02:16;;;;;;;6.05;2.97;;;;;;;;;;5115438;28;20052;-60
2023/10/16 05:08:02;;;;;;;5.57;2.90;;;;;;;;;;5073358;28;20040;-59
2023/10/16 05:13:39;;;;;;;4.35;2.25;;;;;;;;;;5015728;28;20042;-59
2023/10/16 05:19:17;;;;;;;4.13;2.13;;;;;;;;;;5073525;28;20421;-60
2023/10/16 06:14:11;;;;;;;6.82;3.25;;;;;;;;;;5120199;28;20048;-59
2023/10/16 06:16:39;;;;;;;4.45;2.97;;;;;;;;;;5113856;28;20063;-61
2023/10/16 06:19:07;;;;;;;7.55;3.25;;;;;;;;;;5113963;28;20408;-59
2023/10/16 06:21:34;;;;;;;6.28;3.15;;;;;;;;;;5113423;28;20137;-60
2023/10/16 06:24:17;;;;;;;5.05;3.35;;;;;;;;;;5114162;28;20054;-60
2023/10/16 06:26:46;;;;;;;5.53;2.88;;;;;;;;;;5114259;28;20396;-60
2023/10/16 06:29:13;;;;;;;8.23;3.75;;;;;;;;;;5114247;28;20062;-59
2023/10/16 06:31:49;;;;;;;7.10;3.97;;;;;;;;;;5113990;28;20051;-59
2023/10/16 06:34:16;;;;;;;6.45;3.28;;;;;;;;;;5113763;28;20055;-59
2023/10/16 06:36:44;;;;;;;6.70;3.55;;;;;;;;;;5113832;28;20047;-60
2023/10/16 06:39:22;;;;;;;6.60;3.83;;;;;;;;;;5113996;28;20062;-60
2023/10/16 06:41:53;;;;;;;7.13;3.58;;;;;;;;;;5113657;28;20055;-59
2023/10/16 06:44:21;;;;;;;7.35;3.78;;;;;;;;;;5113648;28;20393;-60
2023/10/16 06:46:49;;;;;;;7.38;3.85;;;;;;;;;;5101123;28;20055;-59
2023/10/16 06:49:18;;;;;;;5.47;3.78;;;;;;;;;;5092923;28;20063;-59
2023/10/16 06:51:50;;;;;;;7.95;4.15;;;;;;;;;;5093193;28;20052;-59
2023/10/16 06:54:18;;;;;;;9.63;3.92;;;;;;;;;;5092925;28;20056;-59
2023/10/16 06:56:45;;;;;;;6.97;4.00;;;;;;;;;;5093012;28;20418;-60
2023/10/16 06:59:16;;;;;;;6.90;4.43;;;;;;;;;;5092804;28;20051;-59
2023/10/16 07:01:46;;;;;;;6.60;4.13;;;;;;;;;;5092744;28;20063;-59
2023/10/16 07:04:14;;;;;;;7.22;3.63;;;;;;;;;;5092773;28;20485;-59
2023/10/16 07:06:42;;;;;;;5.05;3.58;;;;;;;;;;5092113;28;20071;-60
2023/10/16 07:09:12;;;;;;;7.78;3.70;;;;;;;;;;5092510;28;20067;-60
2023/10/16 07:11:42;;;;;;;6.88;3.72;;;;;;;;;;5091956;28;20055;-60
2023/10/16 07:14:12;;;;;;;;;;;;;;;;;;5093073;28;20422;-60
2023/10/16 07:16:38;;;;;;;;;;;;;;;;;;5093462;28;19927;-60
2023/10/16 07:19:07;;;;;;;5.72;3.47;;;;;;;;;;5093094;28;20305;-59
2023/10/16 07:21:34;;;;;;;6.93;3.63;;;;;;;;;;5092609;28;20044;-60
2023/10/16 07:24:02;;;;;;;4.18;3.00;;;;;;;;;;5092318;28;20493;-60
2023/10/16 07:26:29;;;;;;;5.57;3.88;;;;;;;;;;5092493;28;20052;-59
2023/10/16 07:28:58;;;;;;;9.25;3.75;;;;;;;;;;5092208;28;20048;-60
2023/10/16 07:31:26;;;;;;;7.37;3.63;;;;;;;;;;5091927;28;20067;-59
2023/10/16 07:33:59;;;;;;;6.70;3.60;;;;;;;;;;5092506;28;20074;-59
2023/10/16 07:36:26;;;;;;;6.03;3.60;;;;;;;;;;5091920;28;20063;-60
2023/10/16 07:38:54;;;;;;;7.05;3.33;;;;;;;;;;5092628;28;20048;-61
2023/10/16 07:41:23;;;;;;;7.55;4.18;;;;;;;;;;5092282;28;20048;-60
2023/10/16 07:43:56;;;;;;;8.27;3.47;;;;;;;;;;5092456;28;20071;-60
2023/10/16 07:46:29;;;;;;;6.28;3.42;;;;;;;;;;5083661;28;20056;-60
2023/10/16 07:48:56;;;;;;;5.22;3.28;;;;;;;;;;5071947;28;20045;-60
2023/10/16 07:51:25;;;;;;;6.32;3.42;;;;;;;;;;5071672;28;20055;-60
2023/10/16 07:53:53;;;;;;;7.57;3.58;;;;;;;;;;5072213;28;20400;-60
2023/10/16 07:56:25;;;;;;;10.13;4.10;;;;;;;;;;5071844;28;20060;-60
2023/10/16 07:58:54;;;;;;;5.78;3.70;;;;;;;;;;5071708;28;20048;-61
2023/10/16 08:01:36;;;;;;;;;;;;;;;;;;5072480;28;20059;-60
2023/10/16 08:04:06;;;;;;;8.23;3.28;;;;;;;;;;5072127;28;20362;-60
2023/10/16 08:06:37;;;;;;;5.65;3.20;;;;;;;;;;5067409;28;20045;-60
2023/10/16 08:11:56;;;;;;;5.88;3.20;;;;;;;;;;5071029;28;20049;-60
2023/10/16 08:14:23;;;;;;;6.03;3.40;;;;;;;;;;5071342;28;20405;-60
2023/10/16 08:16:58;;;;;;;7.43;3.45;;;;;;;;;;5071608;28;20060;-60
2023/10/16 08:19:31;;;;;;;6.10;3.42;;;;;;;;;;5071966;28;20056;-60
2023/10/16 08:21:58;;;;;;;11.35;3.83;;;;;;;;;;5071794;28;20075;-60
2023/10/16 08:24:25;;;;;;;7.28;3.35;;;;;;;;;;5075439;28;20053;-60
2023/10/16 08:26:52;;;;;;;6.03;4.22;;;;;;;;;;5075813;28;20048;-59
2023/10/16 08:29:20;;;;;;;6.47;3.72;;;;;;;;;;5075086;28;20418;-60
2023/10/16 08:31:52;;;;;;;8.35;4.22;;;;;;;;;;5075408;28;20061;-60
2023/10/16 08:34:20;;;;;;;5.60;3.90;;;;;;;;;;5075521;28;20063;-60
2023/10/16 08:36:50;;;;;;;4.88;3.45;;;;;;;;;;5075548;28;20068;-60
2023/10/16 08:39:19;;;;;;;6.47;3.67;;;;;;;;;;5075556;28;20056;-60
2023/10/16 08:41:51;;;;;;;7.10;3.35;;;;;;;;;;5075081;28;20052;-60
2023/10/16 08:44:18;;;;;;;6.18;3.63;;;;;;;;;;5075385;28;20056;-60
2023/10/16 08:47:15;;;;;;;7.28;3.88;;;;;;;;;;5086516;28;20056;-60
2023/10/16 08:49:51;;;;;;;6.47;3.10;;;;;;;;;;5095595;28;20131;-59
2023/10/16 08:52:23;;;;;;;8.02;3.40;;;;;;;;;;5095171;28;20052;-59
2023/10/16 08:55:02;;;;;;;4.90;2.60;;;;;;;;;;5095423;28;20218;-60
2023/10/16 08:57:29;;;;;;;9.30;3.13;;;;;;;;;;5095460;28;20070;-59
2023/10/16 08:59:58;;;;;;;6.93;3.38;;;;;;;;;;5094902;28;20051;-60
2023/10/16 09:02:26;;;;;;;5.53;2.65;;;;;;;;;;5094905;28;20052;-59
2023/10/16 09:04:54;;;;;;;9.25;3.42;;;;;;;;;;5095091;28;20047;-60
2023/10/16 09:07:24;;;;;;;6.00;2.85;;;;;;;;;;5094971;28;20056;-60
2023/10/16 09:09:53;;;;;;;7.65;3.80;;;;;;;;;;5095162;28;20059;-60
2023/10/16 09:12:26;;;;;;;5.93;3.53;;;;;;;;;;5095061;28;20059;-60
2023/10/16 09:14:53;;;;;;;9.52;3.90;;;;;;;;;;5094807;28;20079;-60
2023/10/16 09:17:20;;;;;;;5.15;2.70;;;;;;;;;;5094806;28;20060;-60
2023/10/16 09:19:48;;;;;;;5.22;2.90;;;;;;;;;;5094760;28;20071;-60
2023/10/16 09:22:15;;;;;;;4.75;2.95;;;;;;;;;;5094388;28;20055;-59
2023/10/16 09:24:44;;;;;;;6.07;3.33;;;;;;;;;;5094920;28;20055;-59
2023/10/16 09:27:14;;;;;;;6.00;2.45;;;;;;;;;;5094383;28;20508;-60
2023/10/16 09:29:45;;;;;;;5.90;2.40;;;;;;;;;;5094754;28;20056;-59
2023/10/16 09:32:13;;;;;;;5.03;2.75;;;;;;;;;;5094970;28;20055;-59
2023/10/16 09:34:41;;;;;;;5.03;2.80;;;;;;;;;;5094391;28;20052;-60
2023/10/16 09:37:20;;;;;;;6.45;3.03;;;;;;;;;;5094316;28;20476;-60
2023/10/16 09:39:49;;;;;;;4.28;2.85;;;;;;;;;;5094848;28;20067;-60
2023/10/16 09:42:16;;;;;;;4.45;2.60;;;;;;;;;;5094204;28;20044;-60
2023/10/16 09:44:44;;;;;;;4.78;3.13;;;;;;;;;;5093984;28;20059;-60
2023/10/16 09:47:26;;;;;;;6.78;3.47;;;;;;;;;;5094286;28;20060;-60
2023/10/16 09:49:54;;;;;;;4.85;2.63;;;;;;;;;;5094475;28;20048;-61
2023/10/16 09:52:22;;;;;;;5.18;3.03;;;;;;;;;;5094170;28;20051;-60
2023/10/16 09:54:52;;;;;;;4.72;2.67;;;;;;;;;;5093607;28;20416;-60
2023/10/16 09:57:18;;;;;;;;;;;;;;;;;;5094885;28;20481;-60
2023/10/16 09:59:45;;;;;;;4.88;2.67;;;;;;;;;;5093962;28;20368;-60
2023/10/16 10:02:17;;;;;;;5.32;3.05;;;;;;;;;;5094181;28;20365;-61
2023/10/16 10:04:50;;;;;;;4.45;2.60;;;;;;;;;;5093840;28;20492;-61
2023/10/16 10:07:20;;;;;;;6.47;2.67;;;;;;;;;;5093670;28;20046;-61
2023/10/16 10:09:47;;;;;;;4.20;2.60;;;;;;;;;;5094123;28;20052;-61
2023/10/16 10:12:37;;;;;;;4.40;2.50;;;;;;;;;;5093779;28;20070;-61
2023/10/16 10:15:14;;;;;;;5.25;3.10;;;;;;;;;;5094251;28;20055;-61
2023/10/16 10:17:42;;;;;;;5.43;2.72;;;;;;;;;;5093853;28;20066;-61
2023/10/16 10:20:16;;;;;;;4.03;2.65;;;;;;;;;;5093537;28;20048;-61
2023/10/16 10:22:45;;;;;;;4.05;2.70;;;;;;;;;;5094070;28;20048;-62
2023/10/16 10:25:21;;;;;;;5.32;2.78;;;;;;;;;;5093581;28;20052;-62
2023/10/16 10:27:49;;;;;;;5.55;2.50;;;;;;;;;;5093740;28;20063;-62
2023/10/16 10:30:18;;;;;;;5.63;2.80;;;;;;;;;;5093774;28;20063;-62
2023/10/16 10:32:51;;;;;;;4.32;2.15;;;;;;;;;;5093266;28;20055;-61
2023/10/16 10:35:21;;;;;;;4.80;2.80;;;;;;;;;;5093499;28;20059;-62
2023/10/16 10:37:48;;;;;;;5.25;2.90;;;;;;;;;;5093454;28;20063;-62
2023/10/16 10:40:21;;;;;;;5.13;2.83;;;;;;;;;;5093665;28;20052;-62
2023/10/16 10:42:53;;;;;;;4.10;2.28;;;;;;;;;;5093745;28;20397;-62
2023/10/16 10:45:33;;;;;;;5.72;2.70;;;;;;;;;;5093208;28;20059;-62
2023/10/16 10:48:06;;;;;;;5.68;2.88;;;;;;;;;;5093548;28;20060;-61
2023/10/16 10:50:34;;;;;;;5.57;2.67;;;;;;;;;;5093297;28;20052;-62
2023/10/16 10:53:04;;;;;;;4.43;2.38;;;;;;;;;;5093693;28;20047;-61
2023/10/16 10:55:31;;;;;;;4.38;2.55;;;;;;;;;;5093259;28;20489;-61
2023/10/16 10:58:01;;;;;;;3.80;2.47;;;;;;;;;;5093600;28;20051;-61
2023/10/16 11:00:44;;;;;;;3.47;2.38;;;;;;;;;;5093474;28;20056;-60
2023/10/16 11:03:22;;;;;;;4.68;2.50;;;;;;;;;;5093297;28;20052;-61
2023/10/16 11:05:49;;;;;;;4.82;2.45;;;;;;;;;;5093340;28;20481;-60
2023/10/16 11:08:25;;;;;;;6.60;2.90;;;;;;;;;;5092542;28;20453;-61
2023/10/16 11:10:52;;;;;;;4.60;2.80;;;;;;;;;;5093114;28;20413;-61
2023/10/16 11:13:21;;;;;;;5.00;2.70;;;;;;;;;;5093168;28;20052;-60
2023/10/16 11:15:53;;;;;;;3.67;2.15;;;;;;;;;;5092996;28;20051;-61
2023/10/16 11:18:21;;;;;;;5.20;2.78;;;;;;;;;;5093397;28;20055;-61
2023/10/16 11:20:49;;;;;;;5.65;2.67;;;;;;;;;;5092818;28;20048;-61
2023/10/16 11:23:17;;;;;;;3.13;2.25;;;;;;;;;;5093154;28;20051;-62
2023/10/16 11:25:45;;;;;;;3.47;2.13;;;;;;;;;;5092844;28;20048;-61
2023/10/16 11:28:17;;;;;;;4.50;1.67;;;;;;;;;;5093211;28;20500;-61
2023/10/16 11:30:49;;;;;;;4.15;1.65;;;;;;;;;;5092745;28;20047;-61
2023/10/16 11:33:26;;;;;;;4.30;1.27;;;;;;;;;;5092993;28;20054;-61
2023/10/16 11:35:55;;;;;;;2.15;1.10;;;;;;;;;;5092811;28;20052;-61
2023/10/16 11:38:28;;;;;;;2.45;1.08;;;;;;;;;;5092784;28;20056;-61
2023/10/16 11:40:55;;;;;;;2.25;1.27;;;;;;;;;;5092615;28;20052;-61
2023/10/16 11:43:22;;;;;;;1.42;0.80;;;;;;;;;;5092493;28;20056;-61
2023/10/16 11:45:53;;;;;;;2.20;1.10;;;;;;;;;;5096232;28;20048;-61
2023/10/16 11:48:29;;;;;;;3.65;1.25;;;;;;;;;;5113109;28;20047;-61
2023/10/16 11:51:06;;;;;;;2.10;1.10;;;;;;;;;;5112677;28;20052;-62
2023/10/16 11:53:34;;;;;;;4.00;1.67;;;;;;;;;;5112754;28;20051;-61
2023/10/16 11:56:01;;;;;;;2.17;0.82;;;;;;;;;;5112801;28;20062;-61
2023/10/16 11:58:31;;;;;;;1.83;1.00;;;;;;;;;;5115485;28;20480;-61
2023/10/16 12:01:08;;;;;;;4.55;1.60;;;;;;;;;;5117124;28;20530;-61
2023/10/16 12:03:37;;;;;;;3.38;1.10;;;;;;;;;;5116251;28;20058;-61
2023/10/16 12:06:08;;;;;;;2.95;1.38;;;;;;;;;;5117007;28;20058;-61
2023/10/16 12:08:36;;;;;;;3.92;1.30;;;;;;;;;;5116599;28;20059;-61
2023/10/16 12:11:03;;;;;;;2.42;1.30;;;;;;;;;;5116613;28;20067;-60
2023/10/16 12:13:30;;;;;;;2.45;1.40;;;;;;;;;;5116610;28;20048;-61
2023/10/16 12:15:57;;;;;;;2.83;1.20;;;;;;;;;;5116818;28;20052;-61
2023/10/16 12:18:26;;;;;;;2.78;1.27;;;;;;;;;;5116226;28;20515;-60
2023/10/16 12:20:53;;;;;;;2.22;1.00;;;;;;;;;;5116448;28;20059;-61
2023/10/16 12:23:21;;;;;;;1.80;1.00;;;;;;;;;;5116641;28;20047;-61
2023/10/16 12:25:49;;;;;;;3.83;1.20;;;;;;;;;;5116569;28;20074;-60
2023/10/16 12:28:15;;;;;;;2.33;1.17;;;;;;;;;;5116777;28;20056;-60
2023/10/16 12:30:42;;;;;;;2.53;1.30;;;;;;;;;;5116313;28;20385;-60
2023/10/16 12:33:09;;;;;;;4.10;1.60;;;;;;;;;;5116548;28;20048;-60
2023/10/16 12:35:36;;;;;;;2.65;1.38;;;;;;;;;;5116374;28;20063;-60
2023/10/16 12:38:05;;;;;;;2.67;1.17;;;;;;;;;;5116393;28;20047;-61
2023/10/16 12:40:37;;;;;;;2.53;1.13;;;;;;;;;;5116335;28;20055;-61
2023/10/16 12:43:05;;;;;;;4.30;1.60;;;;;;;;;;5116279;28;20051;-60
2023/10/16 12:45:33;;;;;;;4.53;1.35;;;;;;;;;;5114246;28;20074;-60
2023/10/16 12:48:00;;;;;;;2.40;1.20;;;;;;;;;;5095304;28;20055;-60
2023/10/16 12:50:27;;;;;;;2.03;1.05;;;;;;;;;;5095400;28;20078;-60
2023/10/16 12:52:55;;;;;;;2.60;1.23;;;;;;;;;;5095185;28;20048;-60
2023/10/16 12:55:22;;;;;;;4.45;1.10;;;;;;;;;;5095185;28;20489;-62
2023/10/16 12:57:51;;;;;;;2.85;1.20;;;;;;;;;;5095563;28;20409;-60
2023/10/16 13:00:18;;;;;;;2.58;1.10;;;;;;;;;;5095179;28;20065;-60
2023/10/16 13:02:46;;;;;;;2.78;1.45;;;;;;;;;;5095563;28;20059;-61
2023/10/16 13:05:14;;;;;;;1.80;1.00;;;;;;;;;;5094999;28;20055;-60
2023/10/16 13:07:42;;;;;;;3.28;1.40;;;;;;;;;;5094947;28;20055;-60
2023/10/16 13:10:10;;;;;;;4.30;1.40;;;;;;;;;;5094227;28;20377;-60
2023/10/16 13:12:39;;;;;;;3.55;1.30;;;;;;;;;;5095305;28;20507;-59
2023/10/16 13:15:09;;;;;;;6.78;2.20;;;;;;;;;;5094507;28;20043;-60
2023/10/16 13:17:36;;;;;;;1.92;1.00;;;;;;;;;;5094855;28;20063;-60
2023/10/16 13:20:05;;;;;;;3.80;1.33;;;;;;;;;;5094812;28;20056;-60
2023/10/16 13:22:32;;;;;;;3.92;1.52;;;;;;;;;;5094692;28;20062;-59
2023/10/16 13:24:59;;;;;;;3.30;1.38;;;;;;;;;;5094471;28;20055;-60
2023/10/16 13:27:27;;;;;;;3.10;1.58;;;;;;;;;;5094912;28;20477;-59
2023/10/16 13:29:54;;;;;;;2.92;1.38;;;;;;;;;;5094789;28;20511;-60
2023/10/16 13:32:22;;;;;;;1.40;0.80;;;;;;;;;;5094608;28;20054;-60
2023/10/16 13:34:50;;;;;;;2.03;1.08;;;;;;;;;;5094753;28;20400;-60
2023/10/16 13:37:18;;;;;;;4.43;1.70;;;;;;;;;;5094306;28;20484;-60
2023/10/16 13:39:45;;;;;;;2.90;1.63;;;;;;;;;;5094419;28;20480;-60
2023/10/16 13:42:14;;;;;;;2.60;1.42;;;;;;;;;;5093854;28;20052;-60
2023/10/16 13:44:42;;;;;;;3.22;1.50;;;;;;;;;;5094346;28;20405;-59
2023/10/16 13:47:10;;;;;;;3.30;1.23;;;;;;;;;;5094275;28;20052;-60
2023/10/16 13:49:38;;;;;;;4.20;1.50;;;;;;;;;;5094265;28;20052;-60
2023/10/16 13:52:07;;;;;;;3.22;1.20;;;;;;;;;;5094255;28;20063;-60
2023/10/16 13:54:34;;;;;;;3.85;1.33;;;;;;;;;;5093994;28;20048;-60
2023/10/16 13:57:02;;;;;;;2.50;1.08;;;;;;;;;;5093974;28;20052;-60
2023/10/16 13:59:29;;;;;;;3.65;1.30;;;;;;;;;;5094405;28;20404;-60
2023/10/16 14:01:56;;;;;;;6.88;1.77;;;;;;;;;;5093855;28;20055;-60
2023/10/16 14:04:25;;;;;;;11.60;2.13;;;;;;;;;;5094042;28;20128;-60
2023/10/16 14:06:53;;;;;;;3.97;1.60;;;;;;;;;;5093723;28;20052;-60
2023/10/16 14:09:20;;;;;;;2.83;1.45;;;;;;;;;;5093871;28;20048;-59
2023/10/16 14:11:50;;;;;;;3.22;1.38;;;;;;;;;;5093801;28;20051;-59
2023/10/16 14:14:19;;;;;;;3.45;1.42;;;;;;;;;;5093321;28;20048;-60
2023/10/16 14:16:49;;;;;;;3.50;0.88;;;;;;;;;;5093360;28;20067;-61
2023/10/16 14:19:17;;;;;;;3.85;1.50;;;;;;;;;;5093311;28;20052;-60
2023/10/16 14:21:44;;;;;;;3.70;1.20;;;;;;;;;;5092582;28;20060;-60
2023/10/16 14:24:17;;;;;;;4.38;1.13;;;;;;;;;;5093486;28;20055;-60
2023/10/16 14:26:45;;;;;;;2.95;1.30;;;;;;;;;;5093592;28;20059;-60
2023/10/16 14:29:12;;;;;;;4.63;1.33;;;;;;;;;;5093255;28;20052;-60
2023/10/16 14:31:38;;;;;;;2.90;1.50;;;;;;;;;;5093272;28;20056;-60
2023/10/16 14:34:06;;;;;;;2.30;1.10;;;;;;;;;;5093192;28;20051;-60
2023/10/16 14:36:33;;;;;;;4.03;1.25;;;;;;;;;;5093064;28;20063;-60
2023/10/16 14:39:04;;;;;;;2.35;1.20;;;;;;;;;;5093382;28;20401;-60
2023/10/16 14:41:33;;;;;;;2.42;1.40;;;;;;;;;;5093004;28;20067;-60
2023/10/16 14:44:00;;;;;;;5.05;3.88;;;;;;;;;;5093056;28;20052;-60
2023/10/16 14:46:26;;;;;;;3.88;1.90;;;;;;;;;;5092274;28;20060;-60
2023/10/16 14:48:53;;;;;;;3.22;1.50;;;;;;;;;;5093151;28;20060;-60
2023/10/16 14:51:22;;;;;;;3.88;1.75;;;;;;;;;;5092700;28;20052;-60
2023/10/16 14:53:49;;;;;;;3.97;1.52;;;;;;;;;;5092744;28;20055;-60
2023/10/16 14:56:18;;;;;;;5.38;2.72;;;;;;;;;;5092614;28;20051;-60
2023/10/16 14:58:47;;;;;;;3.42;1.77;;;;;;;;;;5093022;28;20052;-60
2023/10/16 15:01:17;;;;;;;3.50;1.75;;;;;;;;;;5092724;28;20052;-60
2023/10/16 15:03:44;;;;;;;3.42;1.23;;;;;;;;;;5092938;28;20063;-60
2023/10/16 15:06:12;;;;;;;3.22;1.83;;;;;;;;;;5092839;28;20048;-60
2023/10/16 15:08:39;;;;;;;4.15;1.33;;;;;;;;;;5092304;28;20052;-60
2023/10/16 15:11:10;;;;;;;3.17;1.48;;;;;;;;;;5092360;28;20079;-60
2023/10/16 15:13:37;;;;;;;3.65;1.45;;;;;;;;;;5092626;28;20060;-60
2023/10/16 15:16:06;;;;;;;2.83;2.05;;;;;;;;;;5092258;28;20055;-59
2023/10/16 15:18:33;;;;;;;5.35;1.90;;;;;;;;;;5092542;28;20056;-62
2023/10/16 15:21:01;;;;;;;2.88;1.38;;;;;;;;;;5092608;28;20382;-61
2023/10/16 15:23:29;;;;;;;4.25;2.38;;;;;;;;;;5092675;28;20146;-59
2023/10/16 15:25:57;;;;;;;5.07;1.73;;;;;;;;;;5092225;28;20059;-59
2023/10/16 15:28:24;;;;;;;3.33;1.65;;;;;;;;;;5092644;28;20064;-59
2023/10/16 15:30:51;;;;;;;3.50;2.10;;;;;;;;;;5092222;28;20048;-59
2023/10/16 15:33:20;;;;;;;3.03;1.92;;;;;;;;;;5091876;28;20048;-59
2023/10/16 15:35:48;;;;;;;12.50;2.22;;;;;;;;;;5092586;28;20406;-60
2023/10/16 15:38:16;;;;;;;2.40;1.50;;;;;;;;;;5092739;28;20063;-59
2023/10/16 15:40:45;;;;;;;3.10;1.67;;;;;;;;;;5092648;28;20052;-59
2023/10/16 15:43:12;;;;;;;3.90;1.63;;;;;;;;;;5092636;28;20063;-60
2023/10/16 15:45:40;;;;;;;7.28;2.50;;;;;;;;;;5091911;28;20048;-60
2023/10/16 15:48:07;;;;;;;2.40;1.40;;;;;;;;;;5092751;28;20051;-60
2023/10/16 15:50:36;;;;;;;2.95;1.50;;;;;;;;;;5092283;28;20056;-60
2023/10/16 15:53:04;;;;;;;4.65;1.90;;;;;;;;;;5092026;28;20052;-59
2023/10/16 15:55:31;;;;;;;3.33;1.52;;;;;;;;;;5091651;28;20044;-60
2023/10/16 15:57:58;;;;;;;3.13;1.60;;;;;;;;;;5092071;28;20044;-60
2023/10/16 16:00:26;;;;;;;5.20;1.52;;;;;;;;;;5092024;28;20078;-60
2023/10/16 16:02:54;;;;;;;4.93;1.90;;;;;;;;;;5092535;28;20052;-61
2023/10/16 16:05:22;;;;;;;2.80;1.58;;;;;;;;;;5092402;28;20048;-60
2023/10/16 16:07:51;;;;;;;3.08;1.60;;;;;;;;;;5092459;28;20063;-60
2023/10/16 16:10:19;;;;;;;4.60;1.80;;;;;;;;;;5091685;28;20086;-60
2023/10/16 16:12:46;;;;;;;3.03;2.22;;;;;;;;;;5092249;28;20056;-60